Latest Coastal Weather Observations for Wilsons Promontory

IDT60701

Issued at 2:15 am EDT Friday 31 October 2014 (issued every 10 minutes, with the page automatically refreshed every 10 minutes)

About coastal observations | Map of coastal stations | Coastal observations for TAS | Marine services | Other Formats
Station Details ID: 085096 Name: WILSONS PROMONTORY LIGHTHOUSE Lat: -39.13 Lon: 146.42 Height: 95.0 m
Data from the previous 72 hours. | See also: Recent months at Wilsons Promontory
Date/Time
EDT
Temp

°C
Wind Pressure Rain
since 9am
mm
Weather Cloud Vis
km
Sea
Height
m
Swell
Dir
 
Speed
knots
Gust
knots
hPa Trend Height
m
Period
s
Dir
31/02:00am 12.2 WNW 12 16 1011.9 - 0.0 - - - - - - -
31/01:30am 12.4 WNW 13 18 1012.4 - 0.0 - - - - - - -
31/01:00am 12.4 WNW 14 18 1012.6 - 0.0 - - - - - - -
31/12:30am 12.5 WNW 14 18 1012.9 - 0.0 - - - - - - -
31/12:00am 12.6 WNW 15 18 1012.9 - 0.0 - - - - - - -
 
Date/Time
EDT
Temp

°C
Wind Pressure Rain
since 9am
mm
Weather Cloud Vis
km
Sea
Height
m
Swell
Dir
 
Speed
knots
Gust
knots
hPa Trend Height
m
Period
s
Dir
30/11:30pm 12.4 WNW 13 19 1013.0 - 0.0 - - - - - - -
30/11:00pm 12.5 WNW 14 19 1013.0 - 0.0 - - - - - - -
30/10:30pm 12.6 WNW 14 18 1013.0 - 0.0 - - - - - - -
30/10:00pm 12.9 W 16 22 1012.7 - 0.0 - - - - - - -
30/09:30pm 13.0 W 17 25 1012.6 - 0.0 - - - - - - -
30/09:00pm 13.1 W 17 23 1012.6 - 0.0 - - - - - - -
30/08:30pm 13.1 W 14 21 1012.4 - 0.0 - - - - - - -
30/08:00pm 13.3 W 16 23 1012.3 - 0.0 - - - - - - -
30/07:30pm 13.6 W 17 23 1012.4 - 0.0 - - - - - - -
30/07:00pm 14.1 W 20 26 1012.1 - 0.0 - - - - - - -
30/06:30pm 14.3 W 18 25 1012.3 - 0.0 - - - - - - -
30/06:00pm 14.9 W 17 27 1012.1 - 0.0 - - - - - - -
30/05:30pm 14.8 W 25 32 1011.8 - 0.0 - - - - - - -
30/05:00pm 14.8 W 21 31 1011.9 - 0.0 - - - - - - -
30/04:30pm 14.4 W 23 33 1012.1 - 0.0 - - - - - - -
30/04:00pm 14.5 W 23 33 1011.8 - 0.0 - - - - - - -
30/03:30pm 14.6 W 26 36 1011.8 - 0.0 - - - - - - -
30/03:05pm 14.7 W 22 32 1012.0 - 0.0 - - - - - - -
30/03:00pm 14.8 W 22 31 1012.2 - 0.0 - - - - - - -
30/02:30pm 14.6 W 19 30 1012.3 - 0.0 - - - - - - -
30/02:20pm 14.7 WSW 16 29 1012.5 - 0.0 - - - - - - -
30/02:18pm 14.9 WSW 14 29 1012.5 - 0.0 - - - - - - -
30/02:00pm 14.5 W 21 29 1012.5 - 0.0 - - - - - - -
30/01:31pm 14.9 W 19 29 1012.4 - 0.0 - - - - - - -
30/01:30pm 15.1 W 20 29 1012.5 - 0.0 - - - - - - -
30/01:02pm 14.6 W 21 31 1012.5 - 0.0 - - - - - - -
30/01:00pm 14.5 W 23 31 1012.6 - 0.0 - - - - - - -
30/12:51pm 14.0 W 21 31 1012.6 - 0.0 - - - - - - -
30/12:30pm 12.8 W 19 27 1012.7 - 0.0 - - - - - - -
30/12:04pm 13.4 W 21 33 1013.0 - 0.0 - - - - - - -
30/12:00pm 13.4 W 22 30 1013.0 - 0.0 - - - - - - -
30/11:30am 14.0 W 23 31 1013.0 - 0.0 - - - - - - -
30/11:00am 14.3 W 18 28 1013.0 - 0.0 - - - - - - -
30/10:35am 14.5 W 20 32 1013.0 - 0.0 - - - - - - -
30/10:30am 14.5 W 20 29 1013.2 - 0.0 - - - - - - -
30/10:00am 14.7 W 25 32 1012.9 - 0.0 - - - - - - -
30/09:33am 14.0 W 21 33 1013.0 - 0.0 - - - - - - -
30/09:30am 13.9 W 21 30 1013.1 - 0.0 - - - - - - -
30/09:00am 13.3 W 19 26 1013.0 - 0.0 - - - - - - -
30/08:40am 13.2 W 17 29 1013.4 - 0.0 - - - - - - -
30/08:30am 13.1 W 17 23 1013.2 - 0.0 - - - - - - -
30/08:06am 13.1 W 15 25 1013.1 - 0.0 - - - - - - -
30/08:00am 13.2 W 13 23 1013.0 - 0.0 - - - - - - -
30/07:34am 13.3 W 19 29 1012.9 - 0.0 - - - - - - -
30/07:30am 13.3 W 18 26 1012.8 - 0.0 - - - - - - -
30/07:12am 13.3 W 19 30 1012.5 - 0.0 - - - - - - -
30/07:00am 13.5 W 17 26 1012.6 - 0.0 - - - - - - -
30/06:30am 13.0 W 20 29 1012.2 - 0.0 - - - - - - -
30/06:00am 13.1 W 19 30 1012.3 - 0.0 - - - - - - -
30/05:45am 12.9 W 17 27 1011.9 - 0.0 - - - - - - -
30/05:30am 13.0 W 17 26 1012.0 - 0.0 - - - - - - -
30/05:28am 13.0 W 16 26 1012.0 - 0.0 - - - - - - -
30/05:00am 13.0 W 19 27 1012.2 - 0.0 - - - - - - -
30/04:30am 13.3 W 20 30 1012.0 - 0.0 - - - - - - -
30/04:23am 13.2 W 20 30 1012.0 - 0.0 - - - - - - -
30/04:00am 13.2 W 19 27 1012.2 - 0.0 - - - - - - -
30/03:35am 13.2 W 17 28 1012.2 - 0.0 - - - - - - -
30/03:30am 13.2 W 16 24 1012.5 - 0.0 - - - - - - -
30/03:00am 13.2 W 17 25 1012.5 - 0.0 - - - - - - -
30/02:33am 13.2 W 21 31 1012.6 - 0.0 - - - - - - -
30/02:30am 13.2 W 23 31 1012.6 - 0.0 - - - - - - -
30/02:01am 13.2 W 19 32 1012.8 - 0.0 - - - - - - -
30/02:00am 13.2 W 18 27 1013.0 - 0.0 - - - - - - -
30/01:30am 13.2 W 20 30 1013.4 - 0.0 - - - - - - -
30/01:14am 13.2 W 22 32 1013.3 - 0.0 - - - - - - -
30/01:00am 13.3 W 21 30 1013.5 - 0.0 - - - - - - -
30/12:35am 13.2 W 20 30 1013.8 - 0.0 - - - - - - -
30/12:30am 13.2 W 20 27 1013.7 - 0.0 - - - - - - -
30/12:00am 13.3 W 19 31 1013.9 - 0.0 - - - - - - -
 
Date/Time
EDT
Temp

°C
Wind Pressure Rain
since 9am
mm
Weather Cloud Vis
km
Sea
Height
m
Swell
Dir
 
Speed
knots
Gust
knots
hPa Trend Height
m
Period
s
Dir
29/11:31pm 13.3 W 19 29 1013.9 - 0.0 - - - - - - -
29/11:30pm 13.3 W 19 28 1013.9 - 0.0 - - - - - - -
29/11:03pm 13.5 W 19 29 1014.1 - 0.0 - - - - - - -
29/11:00pm 13.5 W 20 29 1013.9 - 0.0 - - - - - - -
29/10:31pm 13.4 W 21 31 1014.2 - 0.0 - - - - - - -
29/10:30pm 13.5 W 21 28 1014.2 - 0.0 - - - - - - -
29/10:00pm 13.3 W 20 33 1014.2 - 0.0 - - - - - - -
29/09:42pm 13.4 W 18 28 1014.4 - 0.0 - - - - - - -
29/09:30pm 13.3 W 18 25 1014.4 - 0.0 - - - - - - -
29/09:00pm 13.3 W 18 27 1014.2 - 0.0 - - - - - - -
29/08:33pm 13.4 W 18 28 1014.0 - 0.0 - - - - - - -
29/08:30pm 13.4 W 19 28 1013.9 - 0.0 - - - - - - -
29/08:03pm 13.5 W 22 32 1013.6 - 0.0 - - - - - - -
29/08:00pm 13.5 W 23 32 1013.6 - 0.0 - - - - - - -
29/07:30pm 13.5 W 20 30 1013.9 - 0.0 - - - - - - -
29/07:01pm 13.6 W 19 30 1013.7 - 0.0 - - - - - - -
29/07:00pm 13.6 W 19 27 1013.8 - 0.0 - - - - - - -
29/06:30pm 13.6 W 17 27 1013.8 - 0.0 - - - - - - -
29/06:23pm 13.9 W 18 28 1013.9 - 0.0 - - - - - - -
29/06:00pm 14.2 W 19 27 1013.7 - 0.0 - - - - - - -
29/05:38pm 13.9 W 18 28 1013.8 - 0.0 - - - - - - -
29/05:30pm 14.4 W 21 28 1013.5 - 0.0 - - - - - - -
29/05:07pm 14.5 W 24 34 1013.2 - 0.0 - - - - - - -
29/05:00pm 14.5 W 24 33 1013.3 - 0.0 - - - - - - -
29/04:30pm 14.5 W 25 35 1013.4 - 0.0 - - - - - - -
29/04:06pm 14.6 W 27 37 1013.4 - 0.0 - - - - - - -
29/04:00pm 14.4 W 28 37 1013.4 - 0.0 - - - - - - -
29/03:35pm 14.2 W 27 37 1013.7 - 0.0 - - - - - - -
29/03:30pm 14.3 W 28 37 1013.6 - 0.0 - - - - - - -
29/03:00pm 14.4 W 28 43 1013.7 - 0.0 - - - - - - -
29/02:30pm 14.4 W 30 41 1013.7 - 0.0 - - - - - - -
29/02:00pm 14.3 W 28 40 1014.4 - 0.0 - - - - - - -
29/01:30pm 13.9 W 24 34 1014.5 - 0.0 - - - - - - -
29/01:00pm 14.2 W 24 34 1014.8 - 0.0 - - - - - - -
29/12:30pm 14.2 W 22 34 1015.1 - 0.0 - - - - - - -
29/12:01pm 13.9 W 22 32 1015.4 - 0.0 - - - - - - -
29/12:00pm 13.8 W 23 32 1015.4 - 0.0 - - - - - - -
29/11:41am 12.7 W 23 33 1015.5 - 0.0 - - - - - - -
29/11:30am 12.2 W 26 34 1015.5 - 0.0 - - - - - - -
29/11:00am 13.3 W 23 34 1015.6 - 0.0 - - - - - - -
29/10:32am 13.1 W 20 33 1015.7 - 0.0 - - - - - - -
29/10:30am 13.4 W 19 28 1015.7 - 0.0 - - - - - - -
29/10:09am 14.0 W 18 28 1015.9 - 0.0 - - - - - - -
29/10:00am 13.8 W 17 25 1015.9 - 0.0 - - - - - - -
29/09:34am 13.7 W 17 28 1015.8 - 0.0 - - - - - - -
29/09:30am 13.7 W 17 24 1015.9 - 0.0 - - - - - - -
29/09:00am 13.1 W 19 26 1015.8 - 0.8 - - - - - - -
29/08:30am 13.0 W 18 25 1015.9 - 0.8 - - - - - - -
29/08:00am 12.7 W 17 23 1015.8 - 0.8 - - - - - - -
29/07:54am 12.7 W 19 29 1015.7 - 0.8 - - - - - - -
29/07:30am 12.4 W 16 23 1015.6 - 0.8 - - - - - - -
29/07:00am 12.2 W 19 27 1015.3 - 0.8 - - - - - - -
29/06:35am 12.3 W 17 27 1015.1 - 0.8 - - - - - - -
29/06:30am 12.3 W 19 27 1014.9 - 0.8 - - - - - - -
29/06:00am 12.3 W 21 28 1014.5 - 0.8 - - - - - - -
29/05:42am 12.2 W 15 25 1014.6 - 0.8 - - - - - - -
29/05:30am 12.2 W 19 26 1014.4 - 0.8 - - - - - - -
29/05:23am 12.2 W 17 27 1014.4 - 0.8 - - - - - - -
29/05:00am 12.2 W 22 28 1014.0 - 0.8 - - - - - - -
29/04:37am 12.2 W 19 30 1013.8 - 0.8 - - - - - - -
29/04:30am 12.1 W 20 29 1013.8 - 0.8 - - - - - - -
29/04:10am 11.9 W 22 32 1013.7 - 0.8 - - - - - - -
29/04:00am 12.1 W 22 31 1013.5 - 0.8 - - - - - - -
29/03:48am 12.2 W 19 29 1013.7 - 0.8 - - - - - - -
29/03:30am 12.1 W 23 31 1013.4 - 0.8 - - - - - - -
29/03:00am 12.0 W 28 39 1013.0 - 0.8 - - - - - - -
29/02:47am 11.9 W 28 38 1012.7 - 0.8 - - - - - - -
29/02:30am 12.0 W 29 38 1012.6 - 0.8 - - - - - - -
29/02:21am 12.0 W 27 37 1012.7 - 0.8 - - - - - - -
29/02:00am 12.1 W 31 40 1012.5 - 0.8 - - - - - - -
29/01:38am 12.0 W 31 41 1012.5 - 0.8 - - - - - - -
29/01:30am 11.8 W 32 41 1012.4 - 0.8 - - - - - - -
29/01:04am 11.8 W 28 41 1012.8 - 0.8 - - - - - - -
29/01:00am 11.8 W 26 34 1012.8 - 0.8 - - - - - - -
29/12:30am 11.8 W 28 41 1012.8 - 0.8 - - - - - - -
29/12:00am 12.0 W 27 38 1012.6 - 0.8 - - - - - - -
 
Date/Time
EDT
Temp

°C
Wind Pressure Rain
since 9am
mm
Weather Cloud Vis
km
Sea
Height
m
Swell
Dir
 
Speed
knots
Gust
knots
hPa Trend Height
m
Period
s
Dir
28/11:30pm 12.1 W 32 42 1011.9 - 0.8 - - - - - - -
28/11:03pm 12.0 W 35 45 1011.8 - 0.8 - - - - - - -
28/11:00pm 12.0 W 36 45 1011.6 - 0.8 - - - - - - -
28/10:30pm 12.2 W 33 45 1011.7 - 0.8 - - - - - - -
28/10:00pm 11.7 W 35 47 1011.2 - 0.8 - - - - - - -
28/09:30pm 12.2 W 36 50 1010.9 - 0.8 - - - - - - -
28/09:00pm 12.3 W 37 49 1010.3 - 0.8 - - - - - - -
28/08:30pm 12.2 W 40 53 1009.6 - 0.8 - - - - - - -
28/08:02pm 12.2 W 37 47 1010.2 - 0.8 - - - - - - -
28/08:00pm 12.2 W 38 47 1010.1 - 0.8 - - - - - - -
28/07:30pm 12.4 W 34 47 1009.8 - 0.8 - - - - - - -
28/07:00pm 12.6 W 36 51 1009.2 - 0.8 - - - - - - -
28/06:30pm 12.5 W 38 53 1008.4 - 0.8 - - - - - - -
28/06:21pm 12.4 W 32 50 1009.0 - 0.8 - - - - - - -
28/06:10pm 12.1 W 44 55 1008.2 - 0.8 - - - - - - -
28/06:08pm 12.2 W 46 55 1008.0 - 0.8 - - - - - - -
28/06:05pm 12.5 W 31 53 1008.7 - 0.8 - - - - - - -
28/06:00pm 12.4 W 43 53 1008.0 - 0.8 - - - - - - -
28/05:30pm 12.5 W 37 51 1007.7 - 0.8 - - - - - - -
28/05:00pm 12.8 W 37 48 1007.6 - 0.8 - - - - - - -
28/04:30pm 13.2 W 44 57 1007.2 - 0.8 - - - - - - -
28/04:00pm 13.0 W 44 57 1006.4 - 0.8 - - - - - - -
28/03:30pm 12.7 W 37 53 1006.5 - 0.8 - - - - - - -
28/03:13pm 13.2 W 42 54 1006.5 - 0.8 - - - - - - -
28/03:12pm 13.2 W 45 54 1006.2 - 0.8 - - - - - - -
28/03:00pm 13.1 W 32 44 1006.8 - 0.8 - - - - - - -
28/02:30pm 12.5 W 31 49 1006.5 - 0.8 - - - - - - -
28/02:00pm 12.6 W 33 48 1006.8 - 0.6 - - - - - - -
28/01:30pm 13.6 W 38 50 1006.0 - 0.6 - - - - - - -
28/01:11pm 13.8 W 42 52 1005.6 - 0.6 - - - - - - -
28/01:00pm 14.3 W 32 49 1006.4 - 0.6 - - - - - - -
28/12:30pm 13.9 W 36 53 1005.6 - 0.6 - - - - - - -
28/12:00pm 13.9 W 34 52 1005.2 - 0.6 - - - - - - -
28/11:53am 13.6 W 33 52 1005.3 - 0.6 - - - - - - -
28/11:30am 13.8 W 43 56 1004.6 - 0.6 - - - - - - -
28/11:00am 13.6 W 36 50 1004.2 - 0.6 - - - - - - -
28/10:30am 13.0 W 33 51 1004.0 - 0.6 - - - - - - -
28/10:26am 13.0 W 28 51 1004.4 - 0.6 - - - - - - -
28/10:00am 12.3 W 41 62 1003.7 - 0.6 - - - - - - -
28/09:46am 12.4 W 37 63 1003.2 - 0.6 - - - - - - -
28/09:30am 12.3 W 32 51 1003.6 - 0.4 - - - - - - -
28/09:00am 12.1 W 31 53 1003.8 - 11.8 - - - - - - -
28/08:53am 12.0 W 35 62 1003.7 - 11.8 - - - - - - -
28/08:51am 12.0 W 22 62 1004.1 - 11.8 - - - - - - -
28/08:44am 11.9 W 37 62 1003.0 - 11.8 - - - - - - -
28/08:39am 11.7 W 39 52 1003.2 - 11.6 - - - - - - -
28/08:30am 12.1 W 26 45 1003.4 - 11.2 - - - - - - -
28/08:00am 12.1 W 26 46 1003.5 - 11.2 - - - - - - -
28/07:30am 12.8 WNW 33 58 1002.9 - 11.2 - - - - - - -
28/07:00am 12.7 WNW 31 58 1002.3 - 11.2 - - - - - - -
28/06:51am 12.7 W 29 60 1002.7 - 11.2 - - - - - - -
28/06:45am 12.6 WNW 43 55 1002.3 - 11.2 - - - - - - -
28/06:33am 12.4 WNW 27 59 1001.9 - 11.2 - - - - - - -
28/06:30am 12.4 WNW 25 46 1002.6 - 11.2 - - - - - - -
28/06:00am 12.2 W 29 46 1002.9 - 11.2 - - - - - - -
28/05:30am 12.3 W 31 55 1002.7 - 11.2 - - - - - - -
28/05:23am 12.2 W 31 52 1002.4 - 11.2 - - - - - - -
28/05:00am 11.9 WNW 31 48 1002.6 - 11.2 - - - - - - -
28/04:57am 11.9 NW 34 48 1002.4 - 11.2 - - - - - - -
28/04:30am 12.0 W 26 46 1002.8 - 11.2 - - - - - - -
28/04:23am 11.9 WNW 24 56 1003.0 - 11.2 - - - - - - -
28/04:13am 11.9 WNW 41 51 1002.3 - 11.2 - - - - - - -
28/04:06am 11.9 WNW 28 57 1003.2 - 11.2 - - - - - - -
28/04:03am 11.9 WNW 41 57 1002.4 - 11.2 - - - - - - -
28/04:02am 11.9 WNW 28 56 1002.9 - 11.2 - - - - - - -
28/04:00am 11.9 WNW 27 46 1003.7 - 11.2 - - - - - - -
28/03:50am 11.8 WNW 25 39 1003.8 - 11.2 - - - - - - -
28/03:30am 11.9 W 27 42 1003.7 - 11.2 - - - - - - -
28/03:00am 12.1 W 27 48 1004.0 - 11.2 - - - - - - -
28/02:30am 11.8 W 25 40 1004.9 - 11.2 - - - - - - -
28/02:21am 11.9 W 28 50 1004.8 - 11.2 - - - - - - -

Other Formats:

Comma delimited format used in spreadsheet applications
http://www.bom.gov.au/fwo/IDT60701/IDT60701.94893.axf

JavaScript Object Notation format (JSON) in row-major order
http://www.bom.gov.au/fwo/IDT60701/IDT60701.94893.json